Create Custom Reports and Graphics: Custom Report

Map - Northern Napa County

Map

15 Minute Data

Map - Southern Napa County

Map

15 Minute Data

Northeast Napa County

11 Stations

15 Minute Data | America/Los_Angeles
as of 5/3/26 4:54 PM PDT
Station Date Time Temp (°F) RH (%) Dew Pt (°F) Wind Spd (mph) Wind Dir (°) Wind Gust (mph) Latest Rain (In) Daily Rain (In) Daily Max Temp (°F) Daily Min Temp (°F)
Dollarhide 17B Remote 5/3/26 1645 66.6   5.1 56   4 50.5   6.5 - - - - - 69.6   4.6 48.1   0.1
Dollarhide 18A Remote 5/3/26 1645 65.3   3.3 57   5 49.8   5.5 - - - - - 67.2   5.7 50.3   5.1
Dollarhide 1AS Remote 5/3/26 1645 66.9   3.1 53   7 49.2   6.4 6.2   0.2 SSW | 201 14.4   0.3 - - 68.4   5.4 50.6   2.8
Angwin 5/3/26 1645 55.8   3.7 67   7 44.9   6.3 4.2   1.8 SE | 140 10.5   2.5 0.00 0.00 57.4   5.8 45.2   1.3
Lower Angwin (Pioneer) 5/3/26 1645 58.7   2.8 - - 6.4   1.9 WSW | 244 15.8   4.9 - - 60.4   4.8 46.4   0.6
Lower Chiles Valley (Brown) 5/3/26 1645 62.5   3.9 57   4 47.0   5.4 4.2   0.1 WNW | 295 11.0   1.5 0.00 0.00 65.0   4.4 49.6   0.2
Deer Park 5/3/26 1645 64.7   0.2 53   12 47.5   5.5 5.4   1.0 SW | 222 14.2   5.7 0.00 0.00 66.1   3.1 50.9   0.5
Moss Creek Vineyard/Reservior 5/3/26 1415 67.0   3.2 48   4 46.6   5.3 - - - 0.00 0.00 68.1   2.9 49.4   2.5
Montesol 5/3/26 1645 58.6   5.1 - - - - - 0.00 0.00 60.4   10.9 44.8   1.6
Dollarhide Base 5/3/26 1645 67.0   3.5 55   5 50.2   5.7 7.7   0.8 SSW | 213 14.3   1.6 0.00 0.00 69.3   4.6 50.3   0.4
Pope Valley (Weeks Lake) 5/3/26 1645 65.9   3.5 50   6 46.6   6.1 6.3   0.8 SSW | 206 12.5   2.6 0.00 0.00 67.5   4.9 45.8   0.1
Max     67.0 67 50.5 7.7 - 15.8 0.00 0.00 69.6 50.9
Avg     63.2 56 48.2 5.8 - 13.2 0.00 - - -
Min     55.8 50 44.9 4.2 - 10.5 0.00 0.00 57.4 44.8

Northern & Central Napa County

32 Stations

15 Minute Data | America/Los_Angeles
as of 5/3/26 4:54 PM PDT
Station Date Time Temp (°F) RH (%) Dew Pt (°F) Wind Spd (mph) Wind Dir (°) Wind Gust (mph) Latest Rain (In) Daily Rain (In) Daily Max Temp (°F) Daily Min Temp (°F)
Calistoga-North 5/3/26 1645 69.1   1.1 51   13 50.3   5.0 - - - 0.00 0.00 83.7   0.0 45.5   0.0
Stags Leap Dist (Chimney Rock) 5/3/26 1645 65.4   0.1 57   9 49.8   4.0 7.3   1.4 SSW | 210 13.6   2.1 0.00 0.00 68.3   1.7 52.7   0.6
Diamond Mtn (McEachran) 5/3/26 1645 62.4   1.1 56   11 46.5   5.7 - - - - - 64.5   4.3 51.2   0.0
Diamond Mtn (Schramsberg) 5/3/26 1645 63.4   2.2 55   8 47.1   5.5 - - - 0.00 0.00 65.0   3.6 49.8   0.5
Stags Leap Dist (Silverado Vineyards) 5/3/26 1645 66.0   1.8 50   11 46.8   3.5 5.1   1.6 SSE | 164 9.9   2.9 0.00 0.00 68.0   2.3 51.4   0.9
Oak Knoll-East (Ranch 53) 5/3/26 1645 65.6   0.5 50   8 46.5   3.6 4.2   0.1 SW | 235 9.9   0.7 0.00 0.00 68.8   2.5 51.7   0.1
Rutherford-North (Mee Ln) 5/3/26 1645 64.6   2.3 54   7 47.7   5.3 6.9   2.3 WSW | 258 13.6   3.9 0.00 0.00 69.7   0.9 52.2   2.0
Frisinger Napa-NW 5/3/26 1645 64.5   0.5 57   5 49.0   2.6 6.2   1.6 WSW | 244 11.6   1.7 0.00 0.00 68.2   1.4 51.7   2.2
Napa-North (Ranch 29) 5/3/26 1645 64.6   0.2 54   7 47.5   3.2 4.4   0.5 SW | 226 12.2   1.7 0.00 0.00 66.6   1.0 53.2   0.1
St. Helena (NVV Office) 5/3/26 1645 66.1   3.2 - - 2.7   0.3 WSW | 241 8.6   0.1 0.00 0.00 69.5   2.3 53.5   0.3
Crossroads Ranch 5/3/26 1645 65.1   0.5 60   4 50.8   2.4 7.7   1.5 W | 271 16.7   0.9 0.00 0.00 67.8   0.4 52.7   0.3
Oakville 5/3/26 1645 65.6   0.1 52   8 47.6   3.8 8.6   0.3 W | 260 14.7   1.1 0.00 0.00 68.3   1.3 52.5   0.4
OV561-East 5/3/26 1645 66.8   1.1 - - - - - - - 69.4   0.2 52.9   0.8
OV518-West 5/3/26 1645 64.7   0.9 - - - - - - - 67.5   0.6 52.7   0.2
Napa-NW (Ranch 54) 5/3/26 1645 66.3   1.6 50   3 47.4   3.1 3.7   1.1 WSW | 247 9.5   1.0 0.00 0.00 69.8   0.3 51.8   0.5
Calistoga (Ranch 78) 5/3/26 1645 65.4   2.3 53   5 47.7   4.7 5.0   1.6 W | 261 10.3   1.9 0.00 0.00 67.8   6.0 52.8   0.3
Yountville-SE (Ranch 85) 5/3/26 1645 66.9   1.9 51   11 48.4   3.3 1.5   2.3 W | 263 4.4   3.5 0.00 0.00 69.8   3.3 52.7   0.5
Yountville-South (Ranch 87) 5/3/26 1645 65.6   0.2 52   9 47.7   4.2 5.9   0.1 SW | 236 11.4   0.5 0.00 0.00 69.3   1.5 51.3   1.0
Rutherford Hill Estate 5/3/26 1645 64.1   2.9 55   6 47.7   5.4 4.5   1.1 W | 272 13.6   1.3 0.00 0.00 69.2   1.0 51.3   0.0
Rutherford (STS) 5/3/26 1645 66.5   0.5 57   10 50.6   4.8 5.6   1.1 WSW | 252 11.8   3.6 0.00 0.00 69.8   0.8 52.5   0.0
Borreo (Soda Canyon) 5/3/26 1645 62.7   0.0 55   11 46.1   5.1 3.9   0.6 SW | 231 11.0   3.2 0.00 0.00 66.2   3.1 48.3   2.6
Oakville-NE (Ranch 88) 5/3/26 1645 66.1   0.8 49   8 46.4   4.8 6.1   1.7 WNW | 290 13.8   0.8 0.00 0.00 70.4   1.0 52.5   0.5
Soda Canyon 5/3/26 1645 64.8   0.8 62   8 51.7   2.5 4.1   1.8 WSW | 243 8.4   2.7 0.00 0.00 67.7   3.1 52.0   1.6
Silver Oak OV 5/3/26 1645 65.9   0.1 53   9 48.4   4.0 8.2   1.6 W | 260 15.0   0.7 0.00 0.00 68.4   1.1 52.6   0.5
Tiara Fria (East St. Helena) 5/3/26 1645 66.0   1.2 50   9 47.0   5.7 5.8   1.0 SW | 233 10.6   0.7 0.00 0.00 67.9   0.8 53.3   0.2
To Kalon Remote (TKKE) 5/3/26 1645 66.7   0.9 - - - - - - - 69.8   0.6 53.1   0.2
To Kalon 5/3/26 1645 65.5   0.9 55   5 49.2   3.4 5.8   2.4 W | 279 13.6   0.0 0.00 0.00 68.9   1.0 52.4   0.3
To Kalon Remote (TKN5) 5/3/26 1645 65.7   3.2 - - - - - - - 69.3   1.7 53.0   0.6
St. Helena-North 5/3/26 1645 67.1   0.7 45   11 45.2   6.3 3.1   0.3 WSW | 239 9.6   1.1 0.00 0.00 67.8   3.3 53.3   0.4
Twomey Calistoga 5/3/26 1645 66.1   2.5 55   2 49.4   3.4 6.2   2.2 WNW | 284 13.1   3.5 0.00 0.00 66.7   5.2 53.0   0.4
Wappo Hill Floor 5/3/26 1645 65.9   0.5 51   8 47.5   3.4 6.7   1.2 SW | 225 11.8   1.0 0.00 0.00 69.2   1.9 52.2   0.3
Yountville (Ranch 67) 5/3/26 1645 66.2   1.8 48   12 45.7   4.4 6.1   0.6 SW | 222 11.0   2.7 0.00 0.00 68.0   1.6 51.8   0.4
Max     69.1 62 51.7 8.6 - 16.7 0.00 0.00 83.7 53.5
Avg     65.5 53 48.0 5.4 - 11.6 0.00 - - -
Min     62.4 45 45.2 1.5 - 4.4 0.00 0.00 64.5 45.5

Southern Napa County

23 Stations

15 Minute Data | America/Los_Angeles
as of 5/3/26 4:54 PM PDT
Station Date Time Temp (°F) RH (%) Dew Pt (°F) Wind Spd (mph) Wind Dir (°) Wind Gust (mph) Latest Rain (In) Daily Rain (In) Daily Max Temp (°F) Daily Min Temp (°F)
Carneros (Milton Rd) 5/3/26 1645 63.5   1.0 59   3 49.1   2.4 - - - 0.00 0.00 67.3   2.3 53.3   0.2
Carneros Lower (Ranch 81) 5/3/26 1645 65.0   2.2 57   0 49.5   2.0 0.6   0.0 WSW | 257 6.9   0.5 0.00 0.00 69.4   1.0 53.0   0.4
Carneros Upper (Ranch 81) 5/3/26 1645 61.0   2.3 61   1 47.4   2.0 11.6   1.8 W | 267 18.0   1.9 - - 64.8   0.9 52.1   0.0
Carneros (Mitsuko) 5/3/26 1645 63.4   0.5 - - - - - - - 66.5   1.2 53.1   1.3
Mount George (Napa East) 5/3/26 1645 65.0   1.7 57   10 49.3   2.9 3.7   0.7 WSW | 248 9.3   2.6 0.00 0.00 69.8   5.0 58.5   1.0
Napa-East (Palmaz 300') 5/3/26 1645 63.7   0.2 56   8 47.9   3.9 3.9   0.2 W | 266 9.1   0.4 0.00 0.00 67.5   2.7 52.7   0.7
Napa-East (Palmaz 1200') 5/3/26 1645 58.7   1.6 66   14 47.6   3.5 4.6   0.8 NW | 324 11.0   0.6 - - 62.0   3.0 48.4   0.7
Napa-East (Palmaz 1400') 5/3/26 1645 58.3   2.0 68   14 47.8   3.2 5.3   1.7 WSW | 248 12.3   2.3 0.00 0.00 61.9   2.8 47.0   1.4
Dealy Lane (Ranch 80) 5/3/26 1645 63.2   1.5 56   3 47.4   3.0 4.1   0.1 WNW | 288 11.2   0.9 0.00 0.00 67.1   1.0 52.9   0.9
Suscol Mtn (Ranch 93) 5/3/26 1645 58.2   0.5 68   7 47.9   3.1 11.7   4.9 WNW | 283 18.5   5.6 0.00 0.00 67.8   3.2 49.2   0.5
Carneros (Saintsbury) 5/3/26 1645 63.5   1.2 58   2 48.6   2.1 7.2   0.4 WSW | 253 11.6   2.2 0.00 0.00 66.4   0.7 52.3   1.6
Sugarloaf West 5/3/26 1645 63.1   0.2 63   7 50.4   2.8 5.0   0.1 SW | 223 10.0   0.9 0.00 0.00 65.7   2.7 53.8   0.3
Suscol Upper (Ranch 92) 5/3/26 1645 59.0   0.6 67   6 48.1   2.9 9.0   4.4 SW | 230 18.8   8.1 0.00 0.00 64.6   4.1 50.0   0.5
Stanly (Ranch 45) 5/3/26 1645 64.6   1.0 55   7 48.3   2.3 7.1   1.4 WSW | 252 13.2   1.6 0.00 0.00 67.9   3.8 53.0   1.0
Suscol Lower (Ranch 35) 5/3/26 1645 62.3   0.5 59   6 48.0   2.9 6.5   0.8 SW | 236 12.3   0.6 0.00 0.00 67.2   3.6 52.8   0.4
Napa-South (Toyon Farms) 5/3/26 1645 63.7   0.2 63   5 51.0   2.1 6.0   0.8 WSW | 253 9.6   2.7 0.00 0.00 66.6   1.6 53.0   0.2
Toyon Remote 1 5/3/26 1645 65.0   0.9 - - - - - - - 69.2   1.9 52.1   2.0
Toyon Remote 2 5/3/26 1645 64.3   0.4 - - - - - - - 67.2   1.2 53.5   0.6
Toyon Remote 3 5/3/26 1645 66.3   0.4 - - - - - - - 69.6   1.9 53.2   1.4
Napa-West Lower (Truchard) 5/3/26 1645 65.0   1.2 53   4 47.7   2.9 - - - - - 69.0   1.4 51.0   0.9
Napa-West Upper (Truchard) 5/3/26 1645 63.2   1.0 58   4 48.1   2.6 7.3   2.2 WSW | 242 14.1   1.5 0.00 0.00 67.4   1.9 51.4   0.5
Mt. Veeder 5/3/26 1645 57.0   1.5 67   7 46.3   4.2 1.2   4.2 NE | 47 5.7   3.8 0.00 0.00 61.0   0.9 47.0   0.8
Wooden Valley 5/3/26 1645 61.8   1.3 57   12 46.5   3.9 6.2   0.6 W | 261 13.2   0.2 0.00 0.00 65.7   2.7 49.8   0.8
Max     66.3 68 51.0 11.7 - 18.8 0.00 0.00 69.8 58.5
Avg     62.6 61 48.2 5.9 - 12.1 0.00 - - -
Min     57.0 53 46.3 0.6 - 5.7 0.00 0.00 61.0 47.0